Glencoe, United Kingdom
Current Conditions -  °F | °C
As of 2:20 AM on Monday 22 Dec 2014 (Local Time) from EGPF Reporting Station
Light Rain Light Rain  
Wind Chill: 50°   Ceiling: Unl
Heat Index: 50°   Visibility: 6mi
Dew Point: 48°   Wind: 14mph
Humidity: 94%   Direction: 250°WSW
Pressure: 29.59"   Gusts: NA
Location:  56.68°N, 5.11°W
Report Text: EGPF 220220Z AUTO 25012KT 9999 -RA FEW016/// //////CB 10/09 Q1002
Loading
Personal Weather Stations






























Interactive Weather Map New forecast layout! Learn more

10-Day Weather Forecast

Advertisements
Track Severe Weather on mobile